Time;durP1;ratioP1;P1;durP2;ratioP2;P2;SDS_P1;SDS_P2;PMS_P1;PMS_P2;Temp;Humidity;BMP_temperature;BMP_pressure;BME280_temperature;BME280_humidity;BME280_pressure;Samples;Min_cycle;Max_cycle;Signal;HPM_P1;HPM_P2
2022/01/13 00:00:57;;;;;;;100.67;47.50;;;;;;;-1.64;79.92;100517.39;2189974;81;21176;-86
2022/01/13 00:03:58;;;;;;;117.27;51.93;;;;;;;-1.64;79.70;100523.41;2190000;81;21051;-86
2022/01/13 00:06:58;;;;;;;102.57;48.50;;;;;;;-1.64;79.70;100525.08;2189855;81;21038;-84
2022/01/13 00:09:59;;;;;;;112.93;49.43;;;;;;;-1.64;81.22;100521.23;2189561;81;21019;-83
2022/01/13 00:13:06;;;;;;;103.40;50.43;;;;;;;-1.62;80.04;100529.56;2189249;81;21375;-86
2022/01/13 00:25:21;;;;;;;108.07;51.30;;;;;;;-1.52;80.94;100532.53;2172437;81;20999;-83
2022/01/13 00:28:22;;;;;;;120.17;54.23;;;;;;;-1.53;80.60;100552.50;2189782;81;21023;-86
2022/01/13 00:31:26;;;;;;;106.90;50.83;;;;;;;-1.52;81.93;100555.96;2189665;81;21341;-84
2022/01/13 00:34:25;;;;;;;119.53;54.07;;;;;;;-1.58;81.03;100569.14;2189310;81;21004;-85
2022/01/13 00:37:26;;;;;;;121.47;50.33;;;;;;;-1.58;81.34;100565.67;2189454;81;21082;-86
2022/01/13 00:40:26;;;;;;;105.70;47.60;;;;;;;-1.56;82.73;100563.77;2189781;81;21019;-83
2022/01/13 00:43:27;;;;;;;107.27;43.07;;;;;;;-1.58;82.29;100565.30;2189999;81;20944;-86
2022/01/13 00:46:38;;;;;;;115.00;53.50;;;;;;;-1.57;83.63;100561.97;2189813;81;20940;-85
2022/01/13 00:49:30;;;;;;;112.57;52.97;;;;;;;-1.53;83.09;100570.81;2188741;81;21060;-86
2022/01/13 00:52:30;;;;;;;111.77;51.77;;;;;;;-1.52;83.52;100572.61;2190052;81;20996;-85
2022/01/13 00:58:48;;;;;;;111.13;52.47;;;;;;;-1.52;83.24;100601.68;2172985;81;21047;-83
2022/01/13 01:01:49;;;;;;;106.93;48.93;;;;;;;-1.48;83.35;100588.76;2189996;81;20920;-85
2022/01/13 01:04:50;;;;;;;110.20;50.50;;;;;;;-1.46;83.60;100590.69;2189742;81;21003;-84
2022/01/13 01:07:50;;;;;;;110.07;47.83;;;;;;;-1.43;83.81;100586.21;2189309;81;21082;-85
2022/01/13 01:10:53;;;;;;;111.53;50.73;;;;;;;-1.42;83.95;100579.94;2189966;81;21007;-84
2022/01/13 01:16:55;;;;;;;94.30;46.93;;;;;;;-1.36;83.62;100568.04;2172915;81;21003;-85
2022/01/13 01:19:56;;;;;;;105.27;47.93;;;;;;;-1.33;84.20;100560.62;2189829;81;20979;-84
2022/01/13 01:23:04;;;;;;;101.27;47.37;;;;;;;-1.31;83.53;100559.08;2189695;81;21340;-83
2022/01/13 01:26:08;;;;;;;95.90;46.80;;;;;;;-1.24;83.92;100563.06;2189125;81;21411;-83
2022/01/13 01:32:10;;;;;;;95.17;44.70;;;;;;;-1.20;84.28;100554.88;2172725;81;21039;-83
2022/01/13 01:35:16;;;;;;;96.80;46.23;;;;;;;-1.18;83.79;100541.80;2189507;81;21020;-84
2022/01/13 01:38:18;;;;;;;104.10;47.10;;;;;;;-1.17;84.26;100532.97;2177175;81;21012;-84
2022/01/13 01:41:19;;;;;;;94.63;44.17;;;;;;;-1.18;84.73;100524.77;2172985;81;20968;-83
2022/01/13 01:44:19;;;;;;;94.57;44.83;;;;;;;-1.15;84.42;100522.47;2173044;81;21384;-81
2022/01/13 01:47:20;;;;;;;99.53;48.00;;;;;;;-1.12;84.87;100519.27;2172566;81;21012;-84
2022/01/13 01:53:23;;;;;;;98.83;45.50;;;;;;;-0.99;84.32;100524.64;2161463;82;21044;-85
2022/01/13 01:56:23;;;;;;;95.20;45.90;;;;;;;-0.93;84.20;100537.97;2173033;82;20973;-85
2022/01/13 01:59:28;;;;;;;102.27;44.30;;;;;;;-0.93;84.79;100558.87;2172674;81;20944;-84
2022/01/13 02:02:28;;;;;;;96.87;45.43;;;;;;;-0.94;84.30;100575.91;2172530;81;20969;-87
2022/01/13 02:05:28;;;;;;;88.10;42.93;;;;;;;-0.89;84.07;100534.89;2173308;81;20999;-86
2022/01/13 02:08:29;;;;;;;95.80;45.23;;;;;;;-0.86;83.92;100491.60;2173489;81;21415;-87
2022/01/13 02:11:30;;;;;;;98.47;44.27;;;;;;;-0.82;84.02;100472.24;2173416;81;20980;-85
2022/01/13 02:14:48;;;;;;;105.20;47.67;;;;;;;-0.82;84.39;100476.98;2173157;81;20957;-84
2022/01/13 02:17:37;;;;;;;100.80;45.70;;;;;;;-0.78;84.04;100466.21;2171649;81;21004;-86
2022/01/13 02:20:37;;;;;;;85.97;39.63;;;;;;;-0.73;84.09;100459.79;2172870;81;21009;-84
2022/01/13 02:23:38;;;;;;;87.17;42.30;;;;;;;-0.72;85.17;100452.61;2173187;81;20956;-86
2022/01/13 02:26:38;;;;;;;87.70;41.23;;;;;;;-0.73;84.39;100448.63;2172967;81;20972;-84
2022/01/13 02:29:39;;;;;;;87.43;42.50;;;;;;;-0.71;84.23;100468.50;2172989;81;20956;-86
2022/01/13 02:32:40;;;;;;;83.63;40.03;;;;;;;-0.69;84.04;100464.40;2172637;82;21039;-84
2022/01/13 02:35:40;;;;;;;87.37;39.97;;;;;;;-0.70;84.26;100492.48;2172587;81;21379;-84
2022/01/13 02:38:41;;;;;;;90.87;41.57;;;;;;;-0.69;84.16;100493.89;2185618;81;21446;-85
2022/01/13 02:41:41;;;;;;;85.80;39.07;;;;;;;-0.67;85.09;100497.86;2189668;81;20980;-84
2022/01/13 02:44:49;;;;;;;82.33;38.80;;;;;;;-0.71;84.94;100500.55;2189461;81;20917;-84
2022/01/13 02:50:46;;;;;;;84.63;38.53;;;;;;;-0.69;84.70;100485.30;2172946;81;21060;-85
2022/01/13 02:53:47;;;;;;;88.97;42.20;;;;;;;-0.66;84.61;100479.14;2189302;81;20980;-83
2022/01/13 02:59:49;;;;;;;84.93;37.47;;;;;;;-0.61;84.92;100476.56;2171882;81;21007;-85
2022/01/13 03:02:51;;;;;;;81.47;34.53;;;;;;;-0.61;85.06;100475.28;2189096;81;20991;-84
2022/01/13 03:05:51;;;;;;;83.17;38.20;;;;;;;-0.60;85.46;100482.20;2188524;81;21003;-84
2022/01/13 03:08:53;;;;;;;77.83;36.83;;;;;;;-0.58;85.30;100483.61;2189328;81;21023;-84
2022/01/13 03:11:54;;;;;;;76.00;34.43;;;;;;;-0.55;84.60;100482.19;2190095;81;21043;-84
2022/01/13 03:14:55;;;;;;;82.97;36.33;;;;;;;-0.50;84.66;100482.17;2189555;81;20925;-84
2022/01/13 03:17:56;;;;;;;73.93;34.97;;;;;;;-0.49;85.24;100474.98;2189299;81;20940;-83
2022/01/13 03:20:56;;;;;;;70.60;34.33;;;;;;;-0.47;85.47;100469.98;2189113;81;22088;-84
2022/01/13 03:23:57;;;;;;;77.07;34.07;;;;;;;-0.47;84.91;100468.31;2189472;81;20988;-84
2022/01/13 03:27:01;;;;;;;75.97;34.13;;;;;;;-0.43;84.82;100475.88;2190019;81;20967;-83
2022/01/13 03:30:01;;;;;;;75.73;35.03;;;;;;;-0.44;85.40;100476.26;2190228;81;21075;-85
2022/01/13 03:33:03;;;;;;;74.57;34.03;;;;;;;-0.42;85.12;100477.28;2190904;81;21008;-86
2022/01/13 03:36:05;;;;;;;68.23;34.43;;;;;;;-0.41;84.85;100471.76;2172724;81;21023;-86
2022/01/13 03:39:06;;;;;;;73.07;32.50;;;;;;;-0.38;84.90;100485.73;2175679;81;21047;-87
2022/01/13 03:42:06;;;;;;;64.33;30.87;;;;;;;-0.37;84.75;100491.37;2173310;81;21020;-83
2022/01/13 03:48:10;;;;;;;56.40;28.33;;;;;;;-0.28;84.78;100477.48;2162785;81;21069;-85
2022/01/13 03:51:11;;;;;;;62.07;28.57;;;;;;;-0.28;84.76;100466.84;2173302;81;21037;-86
2022/01/13 03:54:13;;;;;;;58.73;28.77;;;;;;;-0.27;84.91;100469.02;2173066;81;21047;-86
2022/01/13 03:57:14;;;;;;;59.47;27.20;;;;;;;-0.27;85.21;100478.00;2173734;81;20957;-84
2022/01/13 04:00:14;;;;;;;49.20;24.80;;;;;;;-0.26;84.78;100486.20;2173668;81;20961;-86
2022/01/13 04:03:15;;;;;;;53.10;26.67;;;;;;;-0.22;84.54;100484.02;2173180;81;20958;-85
2022/01/13 04:06:16;;;;;;;48.63;22.93;;;;;;;-0.15;84.36;100482.83;2174662;81;20977;-86
2022/01/13 04:09:16;;;;;;;57.90;25.30;;;;;;;-0.13;84.85;100469.73;2173368;81;21400;-84
2022/01/13 04:12:17;;;;;;;51.37;25.93;;;;;;;-0.12;84.47;100464.72;2173241;81;21694;-86
2022/01/13 04:15:21;;;;;;;51.40;26.50;;;;;;;-0.11;84.30;100456.24;2163383;82;20953;-83
2022/01/13 04:18:21;;;;;;;44.73;23.70;;;;;;;-0.06;84.27;100456.61;2173640;81;21044;-85
2022/01/13 04:21:22;;;;;;;51.07;25.67;;;;;;;-0.02;84.11;100446.70;2173860;81;21375;-86
2022/01/13 04:24:22;;;;;;;48.43;25.43;;;;;;;0.03;83.91;100451.34;2173747;81;21036;-86
2022/01/13 04:27:24;;;;;;;52.17;25.47;;;;;;;0.03;83.92;100449.66;2173441;81;21004;-85
2022/01/13 04:30:35;;;;;;;38.87;20.87;;;;;;;0.06;83.90;100440.02;2173717;81;21087;-84
2022/01/13 04:33:28;;;;;;;42.70;22.83;;;;;;;0.08;83.80;100440.65;2172553;81;21393;-85
2022/01/13 04:36:32;;;;;;;45.80;23.93;;;;;;;0.12;83.56;100437.93;2173662;82;20968;-85
2022/01/13 04:39:32;;;;;;;38.78;20.48;;;;;;;0.14;83.81;100440.23;2172818;81;21031;-83
2022/01/13 04:42:36;;;;;;;40.10;20.30;;;;;;;0.17;83.40;100434.05;2172782;82;20968;-86
2022/01/13 04:45:35;;;;;;;40.07;21.70;;;;;;;0.19;83.33;100435.06;2172987;81;21019;-85
2022/01/13 04:48:36;;;;;;;39.10;20.63;;;;;;;0.21;83.21;100443.39;2173146;81;21013;-85
2022/01/13 04:51:38;;;;;;;34.80;19.13;;;;;;;0.20;83.00;100450.59;2172409;81;21012;-86
2022/01/13 04:54:39;;;;;;;43.80;22.13;;;;;;;0.23;83.18;100449.94;2172351;82;20961;-85
2022/01/13 04:57:39;;;;;;;31.30;18.70;;;;;;;0.24;82.88;100435.03;2172277;81;21016;-86
2022/01/13 05:00:41;;;;;;;34.43;18.63;;;;;;;0.28;82.93;100431.92;2171598;81;21031;-85
2022/01/13 05:03:42;;;;;;;31.10;17.20;;;;;;;0.28;82.98;100434.11;2172996;81;20984;-85
2022/01/13 05:06:42;;;;;;;30.37;17.27;;;;;;;0.26;82.89;100435.66;2172728;81;20980;-86
2022/01/13 05:09:43;;;;;;;34.87;17.53;;;;;;;0.28;83.00;100437.06;2172790;81;21000;-86
2022/01/13 05:12:46;;;;;;;34.33;17.83;;;;;;;0.27;83.22;100433.59;2172047;81;20925;-87
2022/01/13 05:15:46;;;;;;;30.10;18.17;;;;;;;0.28;82.88;100428.07;2172290;81;20965;-84
2022/01/13 05:25:00;;;;;;;36.13;20.37;;;;;;;0.34;83.13;100407.09;2035149;87;21095;-85
2022/01/13 05:28:01;;;;;;;33.93;20.07;;;;;;;0.35;82.87;100409.78;2075331;85;21103;-85
2022/01/13 05:31:01;;;;;;;38.83;19.50;;;;;;;0.39;82.99;100417.34;2074722;86;21689;-84
2022/01/13 05:34:02;;;;;;;40.63;22.70;;;;;;;0.40;82.99;100413.59;2075895;86;21295;-83
2022/01/13 05:37:02;;;;;;;40.43;20.77;;;;;;;1.28;95.79;100408.70;2075428;85;21496;-85
2022/01/13 05:40:03;;;;;;;43.13;22.47;;;;;;;4.21;81.33;100384.72;2090952;85;21083;-85
2022/01/13 05:43:04;;;;;;;36.03;21.23;;;;;;;3.16;75.95;100377.60;2090336;85;21071;-85
2022/01/13 05:46:06;;;;;;;31.80;19.43;;;;;;;2.28;76.97;100381.94;2067632;85;21426;-86
2022/01/13 05:49:06;;;;;;;35.80;20.10;;;;;;;1.77;77.95;100372.77;2090810;85;21067;-86
2022/01/13 05:52:07;;;;;;;35.27;20.03;;;;;;;1.46;78.74;100382.52;2090725;85;21012;-83
2022/01/13 05:55:07;;;;;;;34.63;18.47;;;;;;;1.31;79.47;100381.02;2090858;85;21012;-86
2022/01/13 05:58:08;;;;;;;35.37;19.80;;;;;;;1.19;80.08;100381.03;2112780;82;20948;-84
2022/01/13 06:01:08;;;;;;;57.43;24.90;;;;;;;1.05;80.33;100373.98;2182608;82;20988;-84
2022/01/13 06:04:09;;;;;;;38.27;22.50;;;;;;;0.93;80.67;100372.69;2182582;82;20961;-80
2022/01/13 06:07:09;;;;;;;36.67;20.77;;;;;;;0.88;81.03;100384.70;2181401;82;20917;-81
2022/01/13 06:10:10;;;;;;;47.53;22.07;;;;;;;0.79;81.30;100376.27;2181836;82;21406;-81
2022/01/13 06:13:10;;;;;;;42.00;21.93;;;;;;;0.74;81.48;100390.06;2181417;82;21653;-81
2022/01/13 06:16:11;;;;;;;40.53;21.50;;;;;;;0.72;82.00;100386.88;2182030;82;20968;-80
2022/01/13 06:19:11;;;;;;;45.63;21.33;;;;;;;0.70;81.71;100404.75;2181381;82;20991;-80
2022/01/13 06:22:12;;;;;;;41.80;20.70;;;;;;;0.72;81.82;100404.48;2181473;82;20943;-79
2022/01/13 06:25:12;;;;;;;65.03;30.07;;;;;;;0.73;81.86;100399.84;2181982;82;20944;-80
2022/01/13 06:28:13;;;;;;;42.50;23.87;;;;;;;0.73;81.85;100409.23;2181431;82;21023;-80
2022/01/13 06:31:13;;;;;;;39.33;19.93;;;;;;;0.74;81.90;100416.16;2182054;82;21051;-80
2022/01/13 06:34:14;;;;;;;35.23;18.63;;;;;;;0.76;81.97;100415.88;2181786;82;20909;-80
2022/01/13 06:37:14;;;;;;;40.73;21.23;;;;;;;0.74;82.11;100402.91;2182051;82;21012;-80
2022/01/13 06:40:15;;;;;;;37.67;20.83;;;;;;;0.72;81.91;100399.73;2182397;82;21419;-81
2022/01/13 06:43:15;;;;;;;34.87;18.90;;;;;;;0.73;82.16;100410.52;2181622;82;21463;-80
2022/01/13 06:46:16;;;;;;;37.50;20.33;;;;;;;0.74;82.11;100414.88;2182067;82;21036;-79
2022/01/13 06:49:17;;;;;;;33.93;20.17;;;;;;;0.74;82.12;100411.02;2181855;82;20984;-81
2022/01/13 06:52:17;;;;;;;41.80;22.83;;;;;;;0.74;82.91;100406.77;2181649;82;21000;-81
2022/01/13 06:55:18;;;;;;;38.00;19.77;;;;;;;0.73;82.87;100405.38;2182052;82;20940;-80
2022/01/13 06:58:18;;;;;;;35.40;20.67;;;;;;;0.68;84.25;100401.56;2181638;82;21020;-80
2022/01/13 07:01:21;;;;;;;30.70;19.20;;;;;;;0.62;84.46;100391.33;2180938;82;20972;-79
2022/01/13 07:04:21;;;;;;;37.30;22.03;;;;;;;0.62;84.82;100391.72;2181427;81;21013;-80
2022/01/13 07:07:22;;;;;;;36.57;21.70;;;;;;;0.60;85.19;100381.71;2181278;82;20945;-80
2022/01/13 07:10:22;;;;;;;47.67;25.20;;;;;;;0.59;85.73;100383.38;2179717;82;21036;-80
2022/01/13 07:13:23;;;;;;;44.03;24.63;;;;;;;0.59;85.63;100386.34;2180323;82;20964;-81
2022/01/13 07:16:23;;;;;;;47.13;25.33;;;;;;;0.59;85.43;100397.91;2180668;82;20948;-80
2022/01/13 07:19:24;;;;;;;48.30;25.07;;;;;;;0.62;86.17;100401.99;2180646;82;20988;-80
2022/01/13 07:22:24;;;;;;;45.77;26.40;;;;;;;0.64;85.93;100384.62;2179933;82;21014;-81
2022/01/13 07:25:25;;;;;;;41.77;25.13;;;;;;;0.63;86.67;100360.99;2180166;82;20963;-81
2022/01/13 07:28:25;;;;;;;36.73;21.37;;;;;;;0.67;86.18;100347.09;2180446;82;20944;-80
2022/01/13 07:31:27;;;;;;;47.00;24.57;;;;;;;0.69;86.46;100339.99;2181440;82;21387;-81
2022/01/13 07:34:28;;;;;;;33.50;21.90;;;;;;;0.72;86.47;100327.77;2181355;82;21059;-82
2022/01/13 07:37:28;;;;;;;38.97;23.13;;;;;;;0.77;86.16;100314.86;2181202;82;20917;-82
2022/01/13 07:40:29;;;;;;;39.33;23.17;;;;;;;0.80;86.08;100299.27;2188812;81;21002;-81
2022/01/13 07:43:31;;;;;;;44.20;25.67;;;;;;;0.83;86.26;100320.45;2189087;81;20932;-80
2022/01/13 07:46:31;;;;;;;55.33;33.57;;;;;;;0.84;86.34;100322.23;2188496;81;20959;-81
2022/01/13 07:49:34;;;;;;;45.03;26.37;;;;;;;0.86;85.97;100329.28;2188832;81;20994;-80
2022/01/13 07:52:34;;;;;;;48.00;28.43;;;;;;;0.87;86.51;100331.10;2188300;81;21356;-78
2022/01/13 07:55:35;;;;;;;44.10;26.30;;;;;;;0.91;86.25;100329.66;2187739;81;20944;-82
2022/01/13 07:58:35;;;;;;;49.03;28.60;;;;;;;0.92;86.44;100336.58;2188059;81;20948;-81
2022/01/13 08:01:36;;;;;;;46.87;29.20;;;;;;;0.95;86.21;100331.66;2189213;81;20988;-81
2022/01/13 08:04:36;;;;;;;41.13;26.13;;;;;;;0.99;85.77;100323.39;2188953;81;20975;-81
2022/01/13 08:07:37;;;;;;;47.10;27.70;;;;;;;1.04;86.38;100310.48;2188339;81;21720;-81
2022/01/13 08:10:37;;;;;;;44.53;27.30;;;;;;;1.05;86.19;100313.55;2189097;81;21660;-84
2022/01/13 08:13:38;;;;;;;55.13;31.77;;;;;;;1.07;86.01;100322.66;2188472;81;21379;-83
2022/01/13 08:16:41;;;;;;;51.30;31.10;;;;;;;1.09;86.01;100337.81;2188416;81;21280;-81
2022/01/13 08:19:48;;;;;;;54.60;29.83;;;;;;;1.09;86.40;100340.38;2187707;81;21435;-82
2022/01/13 08:22:48;;;;;;;48.90;27.83;;;;;;;1.07;86.19;100349.27;2188419;81;21004;-82
2022/01/13 08:25:49;;;;;;;46.97;29.77;;;;;;;1.05;86.43;100335.80;2188483;81;20936;-81
2022/01/13 08:28:49;;;;;;;57.80;33.83;;;;;;;1.05;86.42;100327.69;2187861;81;20939;-80
2022/01/13 08:31:50;;;;;;;51.73;30.93;;;;;;;1.08;86.42;100329.59;2187278;81;20984;-82
2022/01/13 08:34:50;;;;;;;57.13;33.23;;;;;;;1.05;86.30;100337.98;2187857;81;20952;-81
2022/01/13 08:37:51;;;;;;;49.17;30.07;;;;;;;1.09;86.65;100327.13;2188173;81;20948;-82
2022/01/13 08:40:53;;;;;;;49.80;29.70;;;;;;;1.11;86.45;100312.70;2188144;81;20920;-82
2022/01/13 08:43:55;;;;;;;48.90;29.50;;;;;;;1.16;86.41;100297.22;2188971;81;20948;-83
2022/01/13 08:46:55;;;;;;;48.60;29.47;;;;;;;1.20;86.40;100304.36;2188915;81;21362;-82
2022/01/13 08:49:56;;;;;;;43.87;25.30;;;;;;;1.21;86.52;100301.01;2189276;81;21031;-81
2022/01/13 08:52:56;;;;;;;41.10;25.47;;;;;;;1.17;86.76;100296.82;2189273;81;21336;-83
2022/01/13 08:55:58;;;;;;;44.00;26.43;;;;;;;1.16;87.04;100309.18;2188596;81;21363;-81
2022/01/13 08:58:59;;;;;;;41.53;27.23;;;;;;;1.17;87.13;100317.40;2188073;81;20988;-79
2022/01/13 09:01:59;;;;;;;40.37;25.83;;;;;;;1.14;86.75;100306.89;2188514;81;20952;-81
2022/01/13 09:05:00;;;;;;;39.33;24.33;;;;;;;1.18;86.80;100311.08;2188226;81;20952;-82
2022/01/13 09:08:00;;;;;;;42.73;26.43;;;;;;;1.16;87.42;100307.50;2189087;81;21410;-81
2022/01/13 09:11:01;;;;;;;44.00;25.80;;;;;;;1.21;87.06;100297.55;2188564;81;20967;-82
2022/01/13 09:14:01;;;;;;;37.03;22.90;;;;;;;1.21;87.38;100297.15;2187994;81;20935;-82
2022/01/13 09:17:08;;;;;;;36.17;24.53;;;;;;;1.24;87.25;100299.05;2187651;81;20956;-81
2022/01/13 09:20:04;;;;;;;39.30;26.60;;;;;;;1.25;86.78;100308.55;2186837;81;21003;-81
2022/01/13 09:23:05;;;;;;;46.37;27.20;;;;;;;1.24;87.23;100309.34;2188050;81;21387;-81
2022/01/13 09:26:05;;;;;;;40.10;23.50;;;;;;;1.25;86.80;100315.88;2188120;81;20961;-82
2022/01/13 09:29:06;;;;;;;40.23;25.33;;;;;;;1.27;86.98;100322.42;2188734;81;20952;-81
2022/01/13 09:32:06;;;;;;;39.80;24.87;;;;;;;1.27;86.68;100315.59;2188712;81;20971;-81
2022/01/13 09:35:07;;;;;;;40.13;25.17;;;;;;;1.30;87.03;100323.03;2188469;81;20940;-81
2022/01/13 09:38:08;;;;;;;39.83;24.63;;;;;;;1.30;87.27;100307.20;2188838;81;21068;-82
2022/01/13 09:41:08;;;;;;;44.27;27.93;;;;;;;1.31;87.15;100306.81;2189741;81;20987;-81
2022/01/13 09:44:10;;;;;;;45.07;26.53;;;;;;;1.32;87.18;100298.30;2189197;81;21013;-80
2022/01/13 09:47:10;;;;;;;40.90;25.53;;;;;;;1.31;87.19;100292.66;2189431;81;21000;-78
2022/01/13 09:50:12;;;;;;;44.73;28.93;;;;;;;1.27;88.04;100295.02;2189051;81;21502;-82
2022/01/13 09:53:13;;;;;;;45.67;28.33;;;;;;;1.32;87.43;100282.48;2188087;81;21365;-81
2022/01/13 09:56:13;;;;;;;43.90;27.77;;;;;;;1.36;87.60;100273.30;2188141;81;21031;-81
2022/01/13 09:59:14;;;;;;;41.30;26.80;;;;;;;1.38;87.68;100266.58;2188535;81;21007;-80
2022/01/13 10:02:14;;;;;;;42.97;25.23;;;;;;;1.43;87.55;100285.81;2187635;81;21360;-80
2022/01/13 10:05:15;;;;;;;44.87;27.67;;;;;;;1.45;87.74;100270.09;2188415;81;20987;-80
2022/01/13 10:08:15;;;;;;;47.23;26.77;;;;;;;1.47;87.59;100249.22;2188093;81;21613;-81
2022/01/13 10:11:16;;;;;;;43.67;25.37;;;;;;;1.49;87.26;100249.82;2187863;81;21030;-82
2022/01/13 10:17:27;;;;;;;51.43;29.73;;;;;;;1.50;87.63;100255.86;2171128;81;20941;-81
2022/01/13 10:20:28;;;;;;;54.17;30.10;;;;;;;1.47;88.14;100262.08;2188387;81;21064;-81
2022/01/13 10:23:29;;;;;;;45.80;28.43;;;;;;;1.47;88.10;100247.92;2189211;81;21052;-81
2022/01/13 10:26:30;;;;;;;48.67;24.90;;;;;;;1.49;88.30;100259.22;2189405;81;21321;-82
2022/01/13 10:29:31;;;;;;;48.33;27.53;;;;;;;1.47;88.61;100260.41;2188589;81;21039;-81
2022/01/13 10:32:31;;;;;;;44.27;26.47;;;;;;;1.47;88.68;100244.07;2188113;81;20975;-80
2022/01/13 10:35:32;;;;;;;47.50;26.87;;;;;;;1.44;88.42;100247.72;2189050;81;20943;-81
2022/01/13 10:38:35;;;;;;;43.27;25.93;;;;;;;1.42;88.92;100258.30;2186747;81;21015;-82
2022/01/13 10:41:48;;;;;;;49.13;27.67;;;;;;;1.37;89.14;100262.22;2171724;81;20956;-81
2022/01/13 10:44:38;;;;;;;46.47;27.90;;;;;;;1.37;88.82;100261.83;2170934;81;20960;-80
2022/01/13 10:47:39;;;;;;;51.10;27.40;;;;;;;1.35;89.39;100256.08;2171517;81;20960;-79
2022/01/13 10:50:40;;;;;;;47.57;30.00;;;;;;;1.35;89.50;100242.82;2171107;81;21355;-81
2022/01/13 10:53:41;;;;;;;47.87;27.33;;;;;;;1.36;89.21;100235.59;2171341;81;20980;-81
2022/01/13 10:56:44;;;;;;;46.53;28.03;;;;;;;1.40;88.98;100228.98;2171275;81;20941;-81
2022/01/13 10:59:44;;;;;;;44.77;26.57;;;;;;;1.41;89.28;100204.66;2171172;81;21640;-81
2022/01/13 11:02:45;;;;;;;51.90;29.87;;;;;;;1.47;89.28;100190.03;2170919;81;20960;-82
2022/01/13 11:05:45;;;;;;;52.43;28.10;;;;;;;1.57;88.69;100204.03;2171800;81;20979;-81
2022/01/13 11:08:46;;;;;;;47.57;28.27;;;;;;;1.60;88.54;100183.65;2171694;81;21371;-80
2022/01/13 11:11:46;;;;;;;45.70;25.70;;;;;;;1.60;88.34;100191.37;2171886;81;21305;-81
2022/01/13 11:14:52;;;;;;;45.93;27.57;;;;;;;1.60;88.97;100192.66;2171243;82;20941;-80
2022/01/13 11:17:49;;;;;;;60.23;32.30;;;;;;;1.57;88.66;100193.34;2171634;81;21320;-78
2022/01/13 11:20:50;;;;;;;57.87;31.07;;;;;;;1.53;89.37;100199.46;2171727;81;20984;-80
2022/01/13 11:23:50;;;;;;;52.03;29.20;;;;;;;1.51;88.84;100196.78;2171433;81;21427;-78
2022/01/13 11:26:50;;;;;;;61.47;34.60;;;;;;;1.70;93.65;100192.49;2172014;81;21379;-80
2022/01/13 11:29:51;;;;;;;67.00;35.93;;;;;;;2.14;88.38;100190.75;2171561;81;20948;-80
2022/01/13 11:32:52;;;;;;;60.70;31.40;;;;;;;1.97;87.50;100190.92;2171828;81;20969;-81
2022/01/13 11:35:56;;;;;;;51.47;30.37;;;;;;;1.87;87.55;100191.98;2172346;81;20965;-79
2022/01/13 11:38:57;;;;;;;;;;;;;;;1.79;87.68;100184.14;2173956;81;21007;-80
2022/01/13 11:41:57;;;;;;;62.13;32.57;;;;;;;1.73;87.87;100170.82;2172533;81;20117;-80
2022/01/13 11:44:58;;;;;;;56.63;29.73;;;;;;;1.70;88.05;100183.48;2171336;81;20933;-81
2022/01/13 11:47:58;;;;;;;55.90;30.13;;;;;;;1.69;88.24;100171.80;2171115;81;20952;-80
2022/01/13 11:51:05;;;;;;;64.53;32.00;;;;;;;1.68;88.59;100166.16;2171086;81;21032;-80
2022/01/13 11:54:06;;;;;;;66.50;32.87;;;;;;;1.68;88.21;100161.89;2170811;81;20936;-80
2022/01/13 11:57:06;;;;;;;55.27;29.07;;;;;;;1.67;88.53;100173.38;2170888;81;20977;-81
2022/01/13 12:00:07;;;;;;;58.80;32.20;;;;;;;1.62;89.19;100162.77;2171984;81;20957;-82
2022/01/13 12:03:07;;;;;;;68.10;35.37;;;;;;;1.57;89.40;100156.02;2172019;82;20984;-82
2022/01/13 12:06:08;;;;;;;62.97;35.67;;;;;;;1.56;89.37;100153.34;2172031;81;21015;-80
2022/01/13 12:09:08;;;;;;;59.67;32.47;;;;;;;1.59;89.17;100137.72;2171953;81;20952;-81
2022/01/13 12:12:09;;;;;;;66.40;34.23;;;;;;;1.63;89.03;100138.81;2171649;81;20975;-80
2022/01/13 12:15:09;;;;;;;63.40;34.57;;;;;;;1.67;89.44;100136.95;2172610;81;20937;-81
2022/01/13 12:18:10;;;;;;;71.60;36.63;;;;;;;1.67;89.13;100129.62;2171568;81;20988;-81
2022/01/13 12:21:21;;;;;;;66.50;34.33;;;;;;;1.67;89.28;100119.32;2171541;81;21047;-81
2022/01/13 12:24:18;;;;;;;63.17;32.27;;;;;;;1.68;89.57;100114.28;2170605;81;20948;-81
2022/01/13 12:27:15;;;;;;;61.53;31.50;;;;;;;1.71;89.25;100110.63;2171158;81;20980;-81
2022/01/13 12:30:15;;;;;;;58.50;33.67;;;;;;;1.75;89.15;100107.89;2172000;81;20981;-81
2022/01/13 12:33:16;;;;;;;70.00;35.27;;;;;;;1.74;89.40;100104.42;2171454;82;21348;-82
2022/01/13 12:36:16;;;;;;;63.63;33.00;;;;;;;1.74;89.34;100104.42;2171584;81;21364;-83
2022/01/13 12:39:17;;;;;;;70.63;35.83;;;;;;;1.72;89.65;100099.93;2171630;81;21324;-81
2022/01/13 12:42:18;;;;;;;67.60;36.17;;;;;;;1.72;88.95;100103.39;2171832;81;21392;-80
2022/01/13 12:45:28;;;;;;;65.70;34.77;;;;;;;1.74;89.32;100104.42;2172088;81;20941;-81
2022/01/13 12:48:29;;;;;;;67.60;36.23;;;;;;;1.74;89.33;100100.95;2171988;81;20944;-80
2022/01/13 12:51:30;;;;;;;66.27;32.63;;;;;;;1.73;89.10;100094.88;2171050;82;21380;-82
2022/01/13 12:54:30;;;;;;;64.00;33.93;;;;;;;1.77;89.32;100094.33;2170279;81;20933;-81
2022/01/13 12:57:31;;;;;;;63.40;33.50;;;;;;;1.78;88.97;100100.37;2170808;81;20985;-83
2022/01/13 13:00:31;;;;;;;74.87;36.40;;;;;;;1.81;88.87;100090.27;2171283;81;21371;-82
2022/01/13 13:03:31;;;;;;;67.67;35.07;;;;;;;1.85;88.81;100093.55;2171225;81;21340;-80
2022/01/13 13:06:35;;;;;;;68.97;36.93;;;;;;;1.89;88.79;100099.39;2171097;81;20929;-84
2022/01/13 13:09:36;;;;;;;85.40;39.50;;;;;;;1.91;88.49;100093.55;2171856;81;20996;-83
2022/01/13 13:12:36;;;;;;;83.53;38.30;;;;;;;1.94;88.51;100103.56;2171222;81;20976;-84
2022/01/13 13:22:01;;;;;;;71.07;40.15;;;;;;;1.94;88.45;100102.27;2216789;79;28493;-84
2022/01/13 13:25:02;;;;;;;73.73;37.30;;;;;;;2.07;87.71;100090.69;2188195;81;21039;-82
2022/01/13 13:28:02;;;;;;;68.33;33.80;;;;;;;2.03;87.61;100084.84;2188780;81;21414;-86
2022/01/13 13:31:03;;;;;;;65.07;33.07;;;;;;;2.01;87.78;100092.87;2188230;81;21019;-85
2022/01/13 13:34:03;;;;;;;64.50;31.67;;;;;;;1.98;87.68;100090.09;2188048;81;21014;-88
2022/01/13 13:37:05;;;;;;;67.00;33.27;;;;;;;1.96;87.70;100077.51;2188317;81;20988;-84
2022/01/13 13:40:06;;;;;;;53.90;30.17;;;;;;;1.97;88.06;100076.72;2187967;81;21075;-88
2022/01/13 13:43:06;;;;;;;66.57;32.70;;;;;;;1.95;87.74;100080.87;2188417;81;21363;-83
2022/01/13 13:46:07;;;;;;;55.23;29.37;;;;;;;1.96;87.92;100085.23;2188850;81;21034;-86
2022/01/13 13:49:08;;;;;;;60.67;31.63;;;;;;;1.93;88.04;100083.75;2188436;81;20944;-86
2022/01/13 13:52:10;;;;;;;68.60;34.47;;;;;;;1.90;88.09;100085.33;2187753;81;20987;-84
2022/01/13 13:55:10;;;;;;;68.13;36.27;;;;;;;1.91;88.02;100084.94;2187944;81;20948;-87
2022/01/13 13:58:11;;;;;;;63.07;33.67;;;;;;;1.91;88.14;100080.68;2189070;81;21015;-84
2022/01/13 14:01:13;;;;;;;67.03;34.43;;;;;;;1.91;88.17;100074.23;2170006;81;20995;-85
2022/01/13 14:04:14;;;;;;;72.90;34.63;;;;;;;1.94;88.03;100083.84;2188805;81;21308;-85
2022/01/13 14:07:14;;;;;;;63.67;35.97;;;;;;;1.97;88.05;100084.45;2189036;81;21746;-82
2022/01/13 14:13:22;;;;;;;71.20;36.60;;;;;;;2.02;88.01;100083.95;2169484;81;21011;-83
2022/01/13 14:16:22;;;;;;;71.83;34.17;;;;;;;2.01;88.19;100088.61;2188589;81;21032;-85
2022/01/13 14:19:23;;;;;;;71.93;34.87;;;;;;;2.01;88.41;100098.02;2187175;80;20944;-83
2022/01/13 14:22:23;;;;;;;66.33;31.97;;;;;;;1.97;88.75;100103.36;2171873;81;20987;-85
2022/01/13 14:25:24;;;;;;;58.80;32.50;;;;;;;1.89;89.34;100096.81;2171979;81;21344;-85
2022/01/13 14:28:28;;;;;;;69.50;34.50;;;;;;;1.85;89.60;100101.27;2171801;82;21395;-84
2022/01/13 14:31:29;;;;;;;66.40;32.55;;;;;;;1.82;89.41;100104.93;2171701;81;21020;-85
2022/01/13 14:34:29;;;;;;;61.10;32.90;;;;;;;1.82;89.81;100125.13;2172311;81;21007;-84
2022/01/13 14:37:30;;;;;;;67.10;34.17;;;;;;;1.78;90.18;100129.58;2171639;81;20979;-86